createdAt,value
2022-09-03T00:00:52.270Z,2.10
2022-09-03T00:03:45.851Z,2.20
2022-09-03T00:06:40.318Z,2.10
2022-09-03T00:09:32.848Z,1.88
2022-09-03T00:12:25.414Z,1.77
2022-09-03T00:15:18.819Z,1.85
2022-09-03T00:18:09.442Z,1.80
2022-09-03T00:21:08.463Z,2.03
2022-09-03T00:23:57.519Z,2.10
2022-09-03T00:26:50.327Z,1.77
2022-09-03T00:29:45.041Z,1.70
2022-09-03T00:32:41.290Z,1.80
2022-09-03T00:35:36.136Z,1.73
2022-09-03T00:38:25.158Z,1.85
2022-09-03T00:41:28.058Z,1.55
2022-09-03T00:44:35.216Z,1.63
2022-09-03T00:47:29.257Z,1.60
2022-09-03T00:50:30.648Z,1.67
2022-09-03T00:53:29.704Z,1.60
2022-09-03T00:56:26.704Z,1.30
2022-09-03T00:59:26.301Z,1.15
2022-09-03T01:02:28.822Z,1.73
2022-09-03T01:05:30.734Z,1.52
2022-09-03T01:08:35.900Z,1.30
2022-09-03T01:11:30.051Z,1.40
2022-09-03T01:14:27.631Z,1.30
2022-09-03T01:17:26.280Z,1.10
2022-09-03T01:20:25.260Z,1.30
2022-09-03T01:23:39.122Z,1.35
2022-09-03T01:26:37.164Z,1.40
2022-09-03T01:29:35.762Z,1.20
2022-09-03T01:32:37.695Z,1.30
2022-09-03T01:35:36.384Z,1.20
2022-09-03T01:38:34.719Z,1.10
2022-09-03T01:41:50.698Z,1.48
2022-09-03T01:44:54.504Z,1.10
2022-09-03T01:47:58.488Z,1.05
2022-09-03T01:50:57.875Z,0.95
2022-09-03T01:54:21.850Z,0.88
2022-09-03T01:57:37.733Z,1.20
2022-09-03T02:00:32.490Z,1.00
2022-09-03T02:03:21.663Z,1.13
2022-09-03T02:06:11.944Z,0.93
2022-09-03T02:09:00.309Z,0.80
2022-09-03T02:11:55.174Z,1.08
2022-09-03T02:14:44.542Z,0.90
2022-09-03T02:17:35.144Z,0.80
2022-09-03T02:23:14.864Z,1.00
2022-09-03T02:26:04.779Z,0.90
2022-09-03T02:28:55.301Z,0.70
2022-09-03T02:31:44.056Z,0.90
2022-09-03T02:34:33.874Z,0.70
2022-09-03T02:37:22.378Z,0.80
2022-09-03T02:40:12.212Z,0.90
2022-09-03T02:43:01.388Z,1.00
2022-09-03T02:45:52.556Z,0.80
2022-09-03T02:48:41.492Z,0.80
2022-09-03T02:51:36.456Z,0.80
2022-09-03T02:54:26.197Z,0.80
2022-09-03T02:57:16.645Z,0.70
2022-09-03T03:00:12.757Z,0.85
2022-09-03T03:03:01.471Z,0.80
2022-09-03T03:05:52.178Z,0.70
2022-09-03T03:08:42.235Z,0.70
2022-09-03T03:11:30.940Z,0.70
2022-09-03T03:14:19.736Z,0.63
2022-09-03T03:17:08.193Z,0.80
2022-09-03T03:19:56.742Z,0.80
2022-09-03T03:22:45.070Z,0.80
2022-09-03T03:25:35.767Z,0.70
2022-09-03T03:28:24.121Z,0.70
2022-09-03T03:31:14.778Z,0.70
2022-09-03T03:34:04.869Z,0.80
2022-09-03T03:36:53.539Z,0.80
2022-09-03T03:39:42.006Z,0.70
2022-09-03T03:42:35.013Z,0.60
2022-09-03T03:45:23.689Z,0.60
2022-09-03T03:48:12.246Z,0.80
2022-09-03T03:51:04.333Z,0.70
2022-09-03T03:53:55.953Z,0.60
2022-09-03T03:56:44.503Z,0.60
2022-09-03T03:59:45.678Z,0.70
2022-09-03T04:02:39.077Z,0.60
2022-09-03T04:05:28.134Z,0.70
2022-09-03T04:08:22.120Z,0.75
2022-09-03T04:11:12.119Z,0.70
2022-09-03T04:14:00.650Z,0.60
2022-09-03T04:16:51.336Z,0.60
2022-09-03T04:22:29.584Z,0.50
2022-09-03T04:25:18.036Z,0.70
2022-09-03T04:28:06.203Z,0.75
2022-09-03T04:30:55.657Z,0.60
2022-09-03T04:33:45.169Z,0.60
2022-09-03T04:36:33.880Z,0.45
2022-09-03T04:39:22.147Z,0.50
2022-09-03T04:42:11.054Z,0.50
2022-09-03T04:44:59.431Z,0.60
2022-09-03T04:47:58.297Z,0.50
2022-09-03T04:50:47.916Z,0.50
2022-09-03T04:53:37.819Z,0.40
2022-09-03T04:56:28.398Z,0.57
2022-09-03T04:59:16.959Z,0.50
2022-09-03T05:02:05.594Z,0.47
2022-09-03T05:04:54.411Z,0.50
2022-09-03T05:07:44.180Z,0.50
2022-09-03T05:10:32.774Z,0.47
2022-09-03T05:13:21.094Z,0.40
2022-09-03T05:16:13.293Z,0.50
2022-09-03T05:19:06.151Z,0.40
2022-09-03T05:21:54.617Z,0.50
2022-09-03T05:24:44.423Z,0.40
2022-09-03T05:27:33.351Z,0.50
2022-09-03T05:30:23.810Z,0.40
2022-09-03T05:33:16.022Z,0.40
2022-09-03T05:36:06.600Z,0.50
2022-09-03T05:38:55.597Z,0.40
2022-09-03T05:41:46.108Z,0.40
2022-09-03T05:44:34.854Z,0.50
2022-09-03T05:47:23.036Z,0.40
2022-09-03T05:50:11.664Z,0.50
2022-09-03T05:53:00.807Z,0.40
2022-09-03T05:55:57.098Z,0.50
2022-09-03T05:58:48.329Z,0.40
2022-09-03T06:01:38.331Z,0.60
2022-09-03T06:04:26.954Z,0.50
2022-09-03T06:07:15.472Z,0.60
2022-09-03T06:10:04.608Z,0.40
2022-09-03T06:12:53.484Z,0.43
2022-09-03T06:15:43.158Z,0.40
2022-09-03T06:18:32.509Z,0.40
2022-09-03T06:21:21.342Z,0.50
2022-09-03T06:24:11.965Z,0.50
2022-09-03T06:27:00.444Z,0.40
2022-09-03T06:29:49.211Z,0.40
2022-09-03T06:32:47.188Z,0.40
2022-09-03T06:35:43.120Z,0.50
2022-09-03T06:38:33.793Z,0.45
2022-09-03T06:41:25.234Z,0.50
2022-09-03T06:44:13.663Z,0.43
2022-09-03T06:47:01.929Z,0.57
2022-09-03T06:49:52.057Z,0.50
2022-09-03T06:52:40.918Z,0.80
2022-09-03T06:55:29.777Z,0.50
2022-09-03T06:58:18.214Z,0.50
2022-09-03T07:01:08.698Z,0.50
2022-09-03T07:03:58.252Z,0.50
2022-09-03T07:06:48.272Z,0.60
2022-09-03T07:09:38.418Z,0.60
2022-09-03T07:12:26.917Z,0.50
2022-09-03T07:15:15.632Z,0.50
2022-09-03T07:18:04.343Z,0.60
2022-09-03T07:20:52.792Z,0.60
2022-09-03T07:23:43.163Z,0.60
2022-09-03T07:26:34.478Z,0.50
2022-09-03T07:29:23.294Z,0.50
2022-09-03T07:32:11.839Z,0.60
2022-09-03T07:35:00.455Z,0.60
2022-09-03T07:37:48.549Z,0.60
2022-09-03T07:40:39.565Z,0.60
2022-09-03T07:43:29.001Z,0.73
2022-09-03T07:46:21.396Z,0.50
2022-09-03T07:49:10.542Z,0.55
2022-09-03T07:51:58.838Z,0.60
2022-09-03T07:54:47.288Z,0.50
2022-09-03T07:57:36.671Z,0.50
2022-09-03T08:00:26.101Z,0.50
2022-09-03T08:03:17.132Z,0.60
2022-09-03T08:06:08.250Z,0.57
2022-09-03T08:09:03.740Z,0.50
2022-09-03T08:11:53.554Z,0.60
2022-09-03T08:14:43.161Z,0.50
2022-09-03T08:17:31.763Z,0.50
2022-09-03T08:20:19.880Z,0.57
2022-09-03T08:23:08.364Z,0.50
2022-09-03T08:26:00.644Z,0.50
2022-09-03T08:28:49.392Z,0.50
2022-09-03T08:31:39.761Z,0.55
2022-09-03T08:34:28.139Z,0.50
2022-09-03T08:37:16.524Z,0.63
2022-09-03T08:40:06.313Z,0.50
2022-09-03T08:43:06.927Z,0.60
2022-09-03T08:45:56.614Z,0.55
2022-09-03T08:48:47.669Z,0.50
2022-09-03T08:51:40.468Z,0.60
2022-09-03T08:57:21.817Z,0.50
2022-09-03T09:00:11.001Z,0.50
2022-09-03T09:03:27.137Z,0.45
2022-09-03T09:06:22.620Z,0.40
2022-09-03T09:09:21.844Z,0.40
2022-09-03T09:12:17.565Z,0.47
2022-09-03T09:15:11.353Z,0.40
2022-09-03T09:18:12.373Z,0.45
2022-09-03T09:21:17.743Z,0.50
2022-09-03T09:24:23.515Z,0.70
2022-09-03T09:27:17.281Z,0.55
2022-09-03T09:30:07.447Z,0.57
2022-09-03T09:32:57.214Z,0.50
2022-09-03T09:35:46.144Z,0.63
2022-09-03T09:38:37.514Z,0.75
2022-09-03T09:41:29.839Z,0.70
2022-09-03T09:44:22.497Z,0.50
2022-09-03T09:47:15.152Z,0.60
2022-09-03T09:50:04.752Z,0.77
2022-09-03T09:53:05.470Z,0.60
2022-09-03T09:55:55.680Z,0.60
2022-09-03T09:58:45.542Z,0.60
2022-09-03T10:01:34.057Z,0.70
2022-09-03T10:04:32.383Z,0.57
2022-09-03T10:07:27.250Z,0.70
2022-09-03T10:10:19.793Z,0.60
2022-09-03T10:13:12.702Z,0.63
2022-09-03T10:16:08.860Z,0.60
2022-09-03T10:19:06.321Z,0.70
2022-09-03T10:22:03.219Z,0.70
2022-09-03T10:24:59.247Z,0.60
2022-09-03T10:27:47.104Z,0.60
2022-09-03T10:30:55.622Z,0.82
2022-09-03T10:33:51.258Z,0.60
2022-09-03T10:36:48.447Z,0.60
2022-09-03T10:39:52.343Z,0.60
2022-09-03T10:42:46.933Z,0.60
2022-09-03T10:45:41.425Z,0.55
2022-09-03T10:49:03.565Z,0.52
2022-09-03T10:52:03.335Z,0.60
2022-09-03T10:55:04.527Z,0.60
2022-09-03T10:58:04.920Z,0.52
2022-09-03T11:01:04.552Z,0.60
2022-09-03T11:04:07.188Z,0.50
2022-09-03T11:07:02.592Z,0.60
2022-09-03T11:09:56.783Z,0.50
2022-09-03T11:12:49.716Z,0.60
2022-09-03T11:15:46.602Z,0.63
2022-09-03T11:18:42.316Z,0.50
2022-09-03T11:21:33.375Z,0.50
2022-09-03T11:24:26.189Z,0.70
2022-09-03T11:27:30.523Z,0.60
2022-09-03T11:30:25.964Z,0.52
2022-09-03T11:33:15.310Z,0.60
2022-09-03T11:36:07.315Z,0.47
2022-09-03T11:38:55.448Z,0.50
2022-09-03T11:41:45.766Z,0.60
2022-09-03T11:44:40.603Z,0.50
2022-09-03T11:47:41.824Z,0.50
2022-09-03T11:50:32.089Z,0.50
2022-09-03T11:53:28.328Z,0.60
2022-09-03T11:56:20.355Z,0.60
2022-09-03T11:59:21.435Z,0.50
2022-09-03T12:02:28.213Z,0.55
2022-09-03T12:05:24.748Z,0.60
2022-09-03T12:08:49.375Z,0.50
2022-09-03T12:11:51.580Z,0.65
2022-09-03T12:14:52.372Z,0.70
2022-09-03T12:18:10.987Z,0.55
2022-09-03T12:21:04.520Z,0.63
2022-09-03T12:23:58.193Z,0.50
2022-09-03T12:26:47.092Z,0.60
2022-09-03T12:29:35.616Z,0.60
2022-09-03T12:32:26.642Z,0.60
2022-09-03T12:38:26.089Z,0.60
2022-09-03T12:41:27.370Z,0.60
2022-09-03T12:44:16.347Z,0.60
2022-09-03T12:50:20.359Z,0.60
2022-09-03T12:53:12.903Z,0.50
2022-09-03T12:56:04.544Z,0.60
2022-09-03T12:58:59.516Z,0.68
2022-09-03T13:01:52.350Z,0.60
2022-09-03T13:04:42.245Z,0.60
2022-09-03T13:07:37.494Z,0.63
2022-09-03T13:10:30.067Z,0.70
2022-09-03T13:13:24.853Z,0.70
2022-09-03T13:16:51.917Z,0.70
2022-09-03T13:19:59.793Z,0.60
2022-09-03T13:23:03.413Z,0.77
2022-09-03T13:26:05.356Z,0.50
2022-09-03T13:29:30.982Z,0.60
2022-09-03T13:32:30.868Z,0.80
2022-09-03T13:35:29.471Z,0.70
2022-09-03T13:38:36.450Z,0.80
2022-09-03T13:41:36.614Z,0.60
2022-09-03T13:44:37.984Z,0.60
2022-09-03T13:50:22.357Z,0.70
2022-09-03T13:53:19.255Z,0.68
2022-09-03T13:56:25.958Z,0.60
2022-09-03T13:59:21.283Z,0.90
2022-09-03T14:02:33.271Z,0.75
2022-09-03T14:05:35.046Z,0.70
2022-09-03T14:08:32.219Z,0.70
2022-09-03T14:11:29.303Z,0.73
2022-09-03T14:14:30.391Z,0.80
2022-09-03T14:17:32.161Z,0.70
2022-09-03T14:20:25.044Z,0.68
2022-09-03T14:23:30.170Z,0.55
2022-09-03T14:26:35.931Z,0.57
2022-09-03T14:29:31.137Z,0.70
2022-09-03T14:32:44.845Z,0.60
2022-09-03T14:35:40.715Z,0.60
2022-09-03T14:39:15.036Z,0.70
2022-09-03T14:42:21.271Z,0.55
2022-09-03T14:45:30.857Z,0.50
2022-09-03T14:48:49.508Z,0.70
2022-09-03T14:51:53.052Z,0.70
2022-09-03T14:55:04.262Z,0.60
2022-09-03T14:58:13.412Z,0.63
2022-09-03T15:01:07.017Z,0.50
2022-09-03T15:04:40.146Z,0.70
2022-09-03T15:07:36.936Z,0.60
2022-09-03T15:10:33.467Z,0.60
2022-09-03T15:13:26.301Z,0.57
2022-09-03T15:16:29.412Z,0.60
2022-09-03T15:19:44.803Z,0.60
2022-09-03T15:22:49.756Z,0.60
2022-09-03T15:25:52.462Z,0.60
2022-09-03T15:28:51.215Z,0.57
2022-09-03T15:31:50.748Z,0.60
2022-09-03T15:34:54.251Z,0.47
2022-09-03T15:37:46.997Z,0.63
2022-09-03T15:40:40.916Z,0.60
2022-09-03T15:43:32.092Z,0.60
2022-09-03T15:46:41.331Z,0.50
2022-09-03T15:49:45.240Z,0.60
2022-09-03T15:52:42.162Z,0.70
2022-09-03T15:55:37.186Z,0.50
2022-09-03T15:58:31.824Z,0.63
2022-09-03T16:01:32.421Z,0.63
2022-09-03T16:04:35.235Z,0.70
2022-09-03T16:07:30.358Z,0.50
2022-09-03T16:10:24.639Z,0.50
2022-09-03T16:13:36.147Z,0.60
2022-09-03T16:16:28.176Z,0.50
2022-09-03T16:19:22.958Z,0.50
2022-09-03T16:22:19.008Z,0.57
2022-09-03T16:25:14.503Z,0.50
2022-09-03T16:28:14.847Z,0.60
2022-09-03T16:31:14.091Z,0.52
2022-09-03T16:34:18.083Z,0.60
2022-09-03T16:37:17.118Z,0.50
2022-09-03T16:40:24.509Z,0.50
2022-09-03T16:43:40.618Z,0.57
2022-09-03T16:46:41.628Z,0.50
2022-09-03T16:49:42.044Z,0.60
2022-09-03T16:52:43.082Z,0.68
2022-09-03T16:55:49.048Z,0.60
2022-09-03T16:58:46.985Z,0.50
2022-09-03T17:01:52.488Z,0.50
2022-09-03T17:05:02.467Z,0.60
2022-09-03T17:08:07.254Z,0.60
2022-09-03T17:11:10.564Z,0.60
2022-09-03T17:14:13.143Z,0.60
2022-09-03T17:17:11.947Z,0.60
2022-09-03T17:20:07.670Z,0.40
2022-09-03T17:23:09.981Z,0.60
2022-09-03T17:26:07.755Z,0.50
2022-09-03T17:29:08.732Z,0.50
2022-09-03T17:32:04.755Z,0.50
2022-09-03T17:35:07.169Z,0.70
2022-09-03T17:38:05.118Z,0.60
2022-09-03T17:41:06.218Z,0.50
2022-09-03T17:46:53.309Z,0.52
2022-09-03T17:49:49.139Z,0.50
2022-09-03T17:52:40.954Z,0.60
2022-09-03T17:55:36.590Z,0.60
2022-09-03T17:58:32.704Z,0.50
2022-09-03T18:01:26.333Z,0.60
2022-09-03T18:04:24.080Z,0.47
2022-09-03T18:07:19.712Z,0.50
2022-09-03T18:10:21.461Z,0.60
2022-09-03T18:13:23.839Z,0.60
2022-09-03T18:16:20.182Z,0.50
2022-09-03T18:19:19.266Z,0.60
2022-09-03T18:22:25.149Z,0.50
2022-09-03T18:25:33.193Z,0.60
2022-09-03T18:28:45.633Z,0.60
2022-09-03T18:31:53.833Z,0.50
2022-09-03T18:35:00.827Z,0.50
2022-09-03T18:38:07.408Z,0.50
2022-09-03T18:41:23.270Z,0.50
2022-09-03T18:44:39.835Z,0.60
2022-09-03T18:48:05.536Z,0.50
2022-09-03T18:51:25.655Z,0.50
2022-09-03T18:55:06.867Z,0.52
2022-09-03T18:58:24.395Z,0.60
2022-09-03T19:01:39.815Z,0.52
2022-09-03T19:05:00.891Z,0.50
2022-09-03T19:08:12.221Z,0.60
2022-09-03T19:11:25.552Z,0.50
2022-09-03T19:14:44.568Z,0.60
2022-09-03T19:18:01.256Z,0.60
2022-09-03T19:21:16.799Z,0.50
2022-09-03T19:24:22.939Z,0.50
2022-09-03T19:27:55.323Z,0.55
2022-09-03T19:31:11.311Z,0.60
2022-09-03T19:34:24.291Z,0.50
2022-09-03T19:37:37.629Z,0.60
2022-09-03T19:41:07.198Z,0.50
2022-09-03T19:44:25.731Z,0.60
2022-09-03T19:47:40.210Z,0.60
2022-09-03T19:50:52.804Z,0.60
2022-09-03T19:53:59.883Z,0.50
2022-09-03T19:57:06.847Z,0.50
2022-09-03T20:00:12.717Z,0.70
2022-09-03T20:03:21.775Z,0.70
2022-09-03T20:06:28.372Z,0.50
2022-09-03T20:09:50.802Z,0.70
2022-09-03T20:12:43.973Z,0.60
2022-09-03T20:15:43.903Z,0.65
2022-09-03T20:18:42.110Z,0.60
2022-09-03T20:21:39.839Z,0.60
2022-09-03T20:24:40.433Z,0.70
2022-09-03T20:27:38.826Z,0.70
2022-09-03T20:30:32.344Z,0.60
2022-09-03T20:33:38.953Z,0.50
2022-09-03T20:36:40.355Z,0.60
2022-09-03T20:39:41.816Z,0.60
2022-09-03T20:43:03.405Z,0.50
2022-09-03T20:46:07.283Z,0.50
2022-09-03T20:49:05.094Z,0.70
2022-09-03T20:52:04.088Z,0.55
2022-09-03T20:55:06.044Z,0.60
2022-09-03T20:57:58.541Z,0.60
2022-09-03T21:00:52.282Z,0.60
2022-09-03T21:03:48.513Z,0.60
2022-09-03T21:06:44.001Z,0.55
2022-09-03T21:09:43.474Z,0.70
2022-09-03T21:12:42.985Z,0.60
2022-09-03T21:15:42.734Z,0.43
2022-09-03T21:18:39.818Z,0.60
2022-09-03T21:21:38.498Z,0.60
2022-09-03T21:24:31.676Z,0.68
2022-09-03T21:27:24.318Z,0.50
2022-09-03T21:30:16.067Z,0.65
2022-09-03T21:33:10.437Z,0.60
2022-09-03T21:36:07.460Z,0.60
2022-09-03T21:39:01.138Z,0.55
2022-09-03T21:41:56.945Z,0.55
2022-09-03T21:44:54.610Z,0.57
2022-09-03T21:47:58.294Z,0.70
2022-09-03T21:50:54.609Z,0.57
2022-09-03T21:53:47.769Z,0.70
2022-09-03T21:56:51.560Z,0.60
2022-09-03T22:00:03.466Z,0.70
2022-09-03T22:03:02.657Z,0.70
2022-09-03T22:05:56.843Z,0.70
2022-09-03T22:08:52.190Z,0.60
2022-09-03T22:11:50.747Z,0.68
2022-09-03T22:14:47.954Z,0.60
2022-09-03T22:17:46.330Z,0.55
2022-09-03T22:20:36.737Z,0.80
2022-09-03T22:23:43.024Z,0.70
2022-09-03T22:26:45.164Z,0.70
2022-09-03T22:29:42.282Z,0.68
2022-09-03T22:32:42.815Z,0.70
2022-09-03T22:35:52.083Z,0.70
2022-09-03T22:39:12.934Z,0.60
2022-09-03T22:42:17.188Z,0.70
2022-09-03T22:45:32.135Z,0.80
2022-09-03T22:48:32.720Z,0.65
2022-09-03T22:51:22.564Z,0.68
2022-09-03T22:54:24.628Z,0.73
2022-09-03T22:57:16.465Z,0.70
2022-09-03T23:00:08.415Z,0.75
2022-09-03T23:03:03.387Z,0.70
2022-09-03T23:05:56.942Z,0.70
2022-09-03T23:08:51.756Z,0.80
2022-09-03T23:11:44.238Z,0.73
2022-09-03T23:14:51.486Z,0.77
2022-09-03T23:17:45.246Z,0.80
2022-09-03T23:20:37.875Z,0.60
2022-09-03T23:23:31.376Z,0.70
2022-09-03T23:26:30.184Z,0.70
2022-09-03T23:29:26.353Z,0.80
2022-09-03T23:32:15.114Z,0.60
2022-09-03T23:35:05.746Z,0.80
2022-09-03T23:38:11.531Z,0.73
2022-09-03T23:41:04.400Z,0.70
2022-09-03T23:44:07.111Z,0.70
2022-09-03T23:47:05.173Z,0.70
2022-09-03T23:50:04.018Z,0.80
2022-09-03T23:53:20.774Z,0.80
2022-09-03T23:56:40.804Z,0.85
2022-09-03T23:59:43.937Z,0.80
